Beverly Hills, Michigan
Current Conditions -  °F | °C
As of 3:15 PM on Sunday 25 Jan 2015 (Local Time) from KVLL Reporting Station
Clear Clear  
Wind Chill: 16°   Ceiling: Unl
Heat Index: 26°   Visibility: 10mi
Dew Point: 13°   Wind: 10mph
Humidity: 56%   Direction: 30°NNE
Pressure: 29.92"   Gusts: 18mph
Location:  42.52°N, 83.23°W
Report Text: KVLL 252015Z AUTO 03009G16KT 360V070 10SM CLR M03/M11 A2992 RMK AO2 T10321108
Loading
Personal Weather Stations






























Interactive Weather Map New forecast layout! Learn more

10-Day Weather Forecast

Advertisements
Track Severe Weather on mobile